Time;durP1;ratioP1;P1;durP2;ratioP2;P2;SDS_P1;SDS_P2;PMS_P1;PMS_P2;Temp;Humidity;BMP_temperature;BMP_pressure;BME280_temperature;BME280_humidity;BME280_pressure;Samples;Min_cycle;Max_cycle;Signal;HPM_P1;HPM_P2
2023/04/15 00:00:10;;;;;;;7.95;2.53;;;;;;;7.78;67.40;100651.22;4990330;28;20551;-52
2023/04/15 00:02:37;;;;;;;3.38;2.00;;;;;;;7.72;67.49;100663.56;4987930;28;20043;-46
2023/04/15 00:05:05;;;;;;;5.13;2.35;;;;;;;7.67;67.71;100661.00;4989299;28;20089;-50
2023/04/15 00:07:31;;;;;;;4.43;1.80;;;;;;;7.59;67.91;100664.56;4990396;28;20050;-48
2023/04/15 00:09:58;;;;;;;3.30;1.80;;;;;;;7.51;67.93;100664.59;5002598;28;20060;-46
2023/04/15 00:12:27;;;;;;;7.63;1.70;;;;;;;7.46;68.18;100671.09;4996687;28;20050;-47
2023/04/15 00:14:54;;;;;;;4.20;1.48;;;;;;;7.43;68.30;100685.50;4990718;28;20054;-49
2023/04/15 00:17:21;;;;;;;7.07;2.53;;;;;;;7.42;68.35;100681.13;4990892;28;20579;-46
2023/04/15 00:19:48;;;;;;;3.20;2.00;;;;;;;7.45;68.35;100687.91;4994537;28;20042;-45
2023/04/15 00:22:16;;;;;;;10.75;1.85;;;;;;;7.45;68.30;100683.22;4994694;28;20520;-46
2023/04/15 00:24:42;;;;;;;6.68;1.52;;;;;;;7.44;68.29;100695.38;4991077;28;20057;-46
2023/04/15 00:27:10;;;;;;;12.57;2.47;;;;;;;7.41;68.56;100698.78;4988076;28;20117;-45
2023/04/15 00:29:36;;;;;;;4.35;1.80;;;;;;;7.39;68.65;100692.78;4993849;28;20057;-45
2023/04/15 00:32:03;;;;;;;9.68;2.50;;;;;;;7.36;68.54;100696.19;4993223;28;20052;-46
2023/04/15 00:34:30;;;;;;;5.70;1.85;;;;;;;7.30;68.94;100703.00;4990921;28;20042;-49
2023/04/15 00:36:57;;;;;;;6.20;1.65;;;;;;;7.30;69.04;100703.00;4991149;28;20089;-47
2023/04/15 00:39:23;;;;;;;9.73;2.10;;;;;;;7.25;68.96;100709.47;4990615;28;20050;-47
2023/04/15 00:41:50;;;;;;;5.30;2.67;;;;;;;7.20;69.34;100709.63;4990100;28;20777;-46
2023/04/15 00:44:17;;;;;;;7.35;2.40;;;;;;;7.22;69.23;100709.31;4990658;28;20046;-48
2023/04/15 00:46:45;;;;;;;8.57;2.47;;;;;;;7.18;69.53;100700.06;4990334;28;20049;-46
2023/04/15 00:49:12;;;;;;;6.97;3.08;;;;;;;7.13;69.42;100708.50;4990122;28;20444;-51
2023/04/15 00:51:39;;;;;;;6.00;2.63;;;;;;;7.10;69.13;100698.13;4990189;28;20085;-49
2023/04/15 00:54:06;;;;;;;8.82;2.92;;;;;;;7.07;69.43;100702.34;5002626;28;20038;-46
2023/04/15 00:56:36;;;;;;;4.55;2.03;;;;;;;7.02;69.66;100708.00;4991569;28;20050;-51
2023/04/15 00:59:05;;;;;;;7.97;2.50;;;;;;;6.96;69.61;100705.75;4989585;28;20054;-46
2023/04/15 01:01:34;;;;;;;8.38;3.08;;;;;;;6.90;69.84;100707.84;4989489;28;20555;-48
2023/04/15 01:04:02;;;;;;;5.47;2.00;;;;;;;6.82;70.00;100702.31;4989650;28;20042;-46
2023/04/15 01:06:31;;;;;;;6.93;1.80;;;;;;;6.73;70.36;100714.09;4989525;28;20054;-49
2023/04/15 01:08:59;;;;;;;3.97;1.70;;;;;;;6.67;70.46;100723.63;4981429;28;20042;-46
2023/04/15 01:11:26;;;;;;;5.35;1.90;;;;;;;6.64;70.39;100720.72;4984715;28;20046;-47
2023/04/15 01:13:55;;;;;;;6.13;1.77;;;;;;;6.63;70.62;100733.66;4991017;28;20054;-46
2023/04/15 01:16:22;;;;;;;5.68;1.75;;;;;;;6.66;70.84;100729.47;4986950;28;20093;-50
2023/04/15 01:18:49;;;;;;;7.78;2.13;;;;;;;6.62;70.68;100737.53;4993154;28;20133;-47
2023/04/15 01:21:17;;;;;;;6.38;2.30;;;;;;;6.58;70.96;100731.06;4997265;28;20066;-46
2023/04/15 01:23:46;;;;;;;10.05;2.20;;;;;;;6.57;71.10;100728.63;4989094;28;20050;-47
2023/04/15 01:26:13;;;;;;;8.52;2.00;;;;;;;6.54;71.24;100732.81;4988264;28;20053;-46
2023/04/15 01:28:40;;;;;;;6.63;2.08;;;;;;;6.53;71.18;100733.97;4989491;28;20401;-51
2023/04/15 01:31:10;;;;;;;7.82;2.10;;;;;;;6.49;71.40;100746.72;4996524;28;20045;-46
2023/04/15 01:33:38;;;;;;;6.93;1.60;;;;;;;6.45;71.35;100759.50;4989673;28;20050;-52
2023/04/15 01:36:07;;;;;;;6.20;2.08;;;;;;;6.41;71.78;100760.41;4989458;28;20073;-48
2023/04/15 01:38:34;;;;;;;5.60;1.70;;;;;;;6.39;71.87;100762.69;4989121;28;21473;-47
2023/04/15 01:41:03;;;;;;;3.38;1.67;;;;;;;6.39;71.93;100760.75;4989126;28;20045;-48
2023/04/15 01:43:30;;;;;;;11.80;2.47;;;;;;;6.41;71.95;100758.50;4989366;28;20092;-47
2023/04/15 01:45:56;;;;;;;7.65;2.97;;;;;;;6.38;71.95;100755.59;4990070;28;20073;-45
2023/04/15 01:48:23;;;;;;;6.60;3.50;;;;;;;6.35;72.48;100764.47;4988963;28;20046;-46
2023/04/15 01:50:52;;;;;;;11.45;2.53;;;;;;;6.33;72.45;100773.00;4989036;28;20057;-47
2023/04/15 01:53:19;;;;;;;9.23;3.95;;;;;;;6.33;72.56;100773.00;4991921;28;20052;-46
2023/04/15 01:55:46;;;;;;;6.00;3.28;;;;;;;6.39;72.45;100766.25;4989041;28;20050;-46
2023/04/15 01:58:12;;;;;;;4.35;2.75;;;;;;;6.39;72.31;100770.94;4989442;28;20060;-45
2023/04/15 02:00:40;;;;;;;5.45;3.90;;;;;;;6.38;72.66;100777.59;4989616;28;20050;-47
2023/04/15 02:03:06;;;;;;;6.47;3.35;;;;;;;6.34;72.67;100773.81;4989017;28;20121;-53
2023/04/15 02:05:33;;;;;;;8.38;3.28;;;;;;;6.33;72.49;100775.75;4989053;28;20049;-44
2023/04/15 02:08:00;;;;;;;19.92;6.05;;;;;;;6.36;72.54;100788.88;4989409;28;20038;-49
2023/04/15 02:10:27;;;;;;;19.13;5.18;;;;;;;6.38;72.68;100785.84;4989159;28;20050;-45
2023/04/15 02:12:53;;;;;;;15.45;4.75;;;;;;;6.37;72.29;100787.75;4988591;28;20059;-48
2023/04/15 02:15:20;;;;;;;11.60;3.70;;;;;;;6.34;72.66;100782.88;4989354;28;20054;-46
2023/04/15 02:17:49;;;;;;;12.98;4.82;;;;;;;6.29;72.69;100794.03;4988873;28;20215;-45
2023/04/15 02:20:18;;;;;;;8.70;2.95;;;;;;;6.25;72.95;100798.53;4997288;28;20407;-44
2023/04/15 02:22:44;;;;;;;7.38;2.65;;;;;;;6.22;73.10;100804.66;4991114;28;20555;-49
2023/04/15 02:25:11;;;;;;;18.65;3.45;;;;;;;6.14;72.98;100800.72;4990670;28;20592;-48
2023/04/15 02:27:38;;;;;;;11.27;2.45;;;;;;;6.13;73.03;100798.28;4991823;28;20057;-46
2023/04/15 02:30:06;;;;;;;7.85;2.22;;;;;;;6.09;73.42;100798.09;4988203;28;20054;-54
2023/04/15 02:32:32;;;;;;;7.05;2.42;;;;;;;6.10;73.38;100798.91;4985608;28;20047;-46
2023/04/15 02:35:07;;;;;;;12.20;3.22;;;;;;;6.06;73.53;100798.72;4991849;28;20120;-48
2023/04/15 02:37:42;;;;;;;6.55;2.30;;;;;;;6.06;73.66;100795.19;4974554;28;20133;-48
2023/04/15 02:40:12;;;;;;;9.65;2.58;;;;;;;6.01;73.30;100798.84;4991402;28;20109;-45
2023/04/15 02:42:40;;;;;;;4.97;2.22;;;;;;;5.94;73.42;100800.44;4991789;28;20570;-45
2023/04/15 02:45:07;;;;;;;9.20;2.22;;;;;;;5.90;73.83;100799.44;4989069;28;20404;-47
2023/04/15 02:47:34;;;;;;;5.25;2.40;;;;;;;5.82;73.77;100800.16;4991154;28;20047;-47
2023/04/15 02:50:06;;;;;;;5.97;2.15;;;;;;;5.79;74.03;100818.09;4991361;28;20046;-50
2023/04/15 02:52:33;;;;;;;9.75;2.10;;;;;;;5.79;74.11;100817.25;4994789;28;20481;-44
2023/04/15 02:55:01;;;;;;;4.63;1.90;;;;;;;5.78;74.04;100821.13;4971152;28;20069;-47
2023/04/15 02:57:28;;;;;;;10.30;2.15;;;;;;;5.74;74.20;100814.66;4989867;28;20089;-51
2023/04/15 02:59:55;;;;;;;6.68;1.75;;;;;;;5.74;74.42;100822.88;4989209;28;20457;-50
2023/04/15 03:02:21;;;;;;;6.93;2.28;;;;;;;5.75;74.30;100825.31;5050820;22;20058;-50
2023/04/15 03:04:49;;;;;;;8.20;2.80;;;;;;;5.75;74.49;100821.75;5028233;28;20045;-45
2023/04/15 03:07:17;;;;;;;4.20;2.03;;;;;;;5.75;74.36;100828.06;5028247;28;20057;-45
2023/04/15 03:09:44;;;;;;;11.13;2.88;;;;;;;5.80;74.55;100835.38;5030108;28;20124;-47
2023/04/15 03:12:12;;;;;;;7.95;3.42;;;;;;;5.75;74.66;100829.97;5027801;28;20064;-46
2023/04/15 03:14:39;;;;;;;10.27;2.97;;;;;;;5.72;74.67;100839.66;5028388;28;20491;-48
2023/04/15 03:17:07;;;;;;;13.20;3.70;;;;;;;5.64;74.64;100848.63;5026919;28;20053;-45
2023/04/15 03:19:34;;;;;;;10.98;3.75;;;;;;;5.62;74.75;100855.56;5030683;28;20568;-47
2023/04/15 03:22:02;;;;;;;7.30;3.08;;;;;;;5.63;74.75;100857.19;5029115;28;20049;-45
2023/04/15 03:24:29;;;;;;;7.00;2.63;;;;;;;5.61;74.82;100853.97;5028071;28;20141;-45
2023/04/15 03:26:56;;;;;;;14.23;3.85;;;;;;;5.63;74.75;100870.94;5032283;28;20053;-56
2023/04/15 03:29:23;;;;;;;5.88;2.85;;;;;;;5.59;75.28;100873.47;5031105;28;20037;-45
2023/04/15 03:31:51;;;;;;;11.35;3.60;;;;;;;5.56;74.92;100865.06;5027978;28;20042;-45
2023/04/15 03:34:18;;;;;;;13.65;4.00;;;;;;;5.52;75.18;100873.09;5021686;28;20049;-45
2023/04/15 03:36:45;;;;;;;12.98;4.47;;;;;;;5.48;75.17;100872.88;5028770;28;20471;-45
2023/04/15 03:39:12;;;;;;;10.82;4.22;;;;;;;5.47;75.54;100876.78;5024151;28;20567;-49
2023/04/15 03:41:39;;;;;;;12.32;4.10;;;;;;;5.43;75.45;100883.97;5029034;28;20038;-44
2023/04/15 03:44:06;;;;;;;11.73;6.32;;;;;;;5.36;75.79;100880.03;5029593;28;20068;-46
2023/04/15 03:46:32;;;;;;;11.60;3.83;;;;;;;5.32;75.67;100890.81;5027377;28;20062;-45
2023/04/15 03:49:01;;;;;;;14.95;4.28;;;;;;;5.28;75.89;100889.81;5026546;28;20076;-46
2023/04/15 03:51:28;;;;;;;19.40;5.20;;;;;;;5.25;75.79;100892.34;5022175;28;20056;-45
2023/04/15 03:53:55;;;;;;;24.73;5.93;;;;;;;5.23;75.92;100900.88;5032396;28;20054;-46
2023/04/15 03:56:22;;;;;;;18.75;4.97;;;;;;;5.25;75.96;100906.06;5029558;28;20042;-46
2023/04/15 03:58:49;;;;;;;17.45;7.30;;;;;;;5.27;75.92;100907.38;5027235;28;20046;-44
2023/04/15 04:01:16;;;;;;;14.48;4.63;;;;;;;5.25;76.07;100906.06;5026685;28;20042;-48
2023/04/15 04:03:42;;;;;;;16.67;5.72;;;;;;;5.24;76.05;100905.25;5023378;28;20049;-49
2023/04/15 04:06:11;;;;;;;14.48;4.72;;;;;;;5.23;76.22;100914.63;5026733;28;20038;-49
2023/04/15 04:08:38;;;;;;;13.35;6.97;;;;;;;5.21;76.39;100914.13;5029286;28;20455;-49
2023/04/15 04:11:04;;;;;;;12.65;5.38;;;;;;;5.16;76.47;100914.22;5025197;28;20045;-46
2023/04/15 04:13:31;;;;;;;14.85;6.28;;;;;;;5.13;76.79;100911.25;5026562;28;20045;-46
2023/04/15 04:15:58;;;;;;;17.10;4.38;;;;;;;5.12;76.46;100913.19;5024986;28;20050;-44
2023/04/15 04:18:24;;;;;;;13.98;5.43;;;;;;;5.10;76.58;100915.44;5029117;28;20046;-52
2023/04/15 04:20:52;;;;;;;15.20;4.55;;;;;;;5.06;76.96;100924.56;5027160;28;20045;-46
2023/04/15 04:23:19;;;;;;;17.35;5.57;;;;;;;5.04;77.01;100927.63;5028494;28;20411;-45
2023/04/15 04:25:46;;;;;;;6.70;2.75;;;;;;;5.02;76.82;100926.28;5028166;28;20037;-47
2023/04/15 04:28:13;;;;;;;6.30;3.08;;;;;;;4.99;77.26;100933.19;5021396;28;20075;-50
2023/04/15 04:30:39;;;;;;;9.20;3.30;;;;;;;5.02;76.98;100929.84;5031618;28;20053;-49
2023/04/15 04:33:06;;;;;;;8.85;3.20;;;;;;;5.04;77.25;100927.63;5027871;28;20056;-49
2023/04/15 04:35:36;;;;;;;8.30;3.30;;;;;;;5.05;77.11;100922.94;5019989;28;20049;-52
2023/04/15 04:38:03;;;;;;;17.38;3.97;;;;;;;4.97;77.19;100938.19;5028481;28;20202;-47
2023/04/15 04:40:30;;;;;;;10.52;3.88;;;;;;;4.92;77.26;100930.06;5025864;28;20414;-45
2023/04/15 04:42:56;;;;;;;12.30;4.35;;;;;;;4.90;77.43;100933.09;5027045;28;20047;-49
2023/04/15 04:45:23;;;;;;;10.48;3.13;;;;;;;4.86;77.69;100942.22;5021338;28;20037;-50
2023/04/15 04:47:50;;;;;;;11.98;3.97;;;;;;;4.86;77.49;100942.22;5026905;28;20038;-47
2023/04/15 04:50:17;;;;;;;14.32;3.92;;;;;;;4.86;77.61;100943.03;5021871;28;20050;-47
2023/04/15 04:52:43;;;;;;;7.88;3.08;;;;;;;4.84;77.75;100938.97;5028545;28;20075;-45
2023/04/15 04:55:10;;;;;;;9.55;3.08;;;;;;;4.80;78.06;100940.69;5027078;28;20410;-44
2023/04/15 04:57:38;;;;;;;7.00;2.90;;;;;;;4.77;77.61;100949.50;5026901;28;20061;-45
2023/04/15 05:00:07;;;;;;;7.22;2.65;;;;;;;4.75;77.79;100957.22;5023995;28;20056;-51
2023/04/15 05:02:34;;;;;;;5.57;2.95;;;;;;;4.75;77.92;100951.75;5026427;28;20148;-46
2023/04/15 05:05:01;;;;;;;11.60;4.20;;;;;;;4.75;78.04;100946.25;5022537;28;20041;-47
2023/04/15 05:07:27;;;;;;;4.18;2.22;;;;;;;4.73;77.86;100941.09;5025169;28;20532;-45
2023/04/15 05:09:54;;;;;;;9.98;2.85;;;;;;;4.70;78.22;100960.06;5027973;28;20049;-45
2023/04/15 05:12:21;;;;;;;7.05;3.08;;;;;;;4.66;78.20;100953.56;5042992;28;20062;-45
2023/04/15 05:14:47;;;;;;;6.22;3.00;;;;;;;4.66;78.17;100959.06;5021671;28;20077;-46
2023/04/15 05:17:14;;;;;;;6.05;3.17;;;;;;;4.64;78.12;100964.00;5038123;28;20057;-47
2023/04/15 05:19:41;;;;;;;6.70;3.38;;;;;;;4.63;78.63;100965.13;5027993;28;20045;-46
2023/04/15 05:22:07;;;;;;;10.70;2.67;;;;;;;4.60;78.76;100971.22;5024375;28;20127;-48
2023/04/15 05:24:35;;;;;;;10.90;3.60;;;;;;;4.57;78.53;100983.59;5025424;28;20049;-46
2023/04/15 05:27:02;;;;;;;4.78;3.00;;;;;;;4.53;78.78;100987.22;5025011;28;20049;-45
2023/04/15 05:29:29;;;;;;;16.10;3.90;;;;;;;4.50;78.95;100993.31;5027571;28;20049;-47
2023/04/15 05:31:56;;;;;;;13.60;2.78;;;;;;;4.52;78.78;100993.84;5016914;28;20045;-47
2023/04/15 05:34:23;;;;;;;6.45;2.60;;;;;;;4.56;78.81;100998.41;5025897;28;20041;-45
2023/04/15 05:36:49;;;;;;;6.10;2.88;;;;;;;4.56;78.79;101003.06;5019637;28;20045;-45
2023/04/15 05:39:16;;;;;;;10.52;3.58;;;;;;;4.54;78.87;101008.88;5018114;28;20057;-45
2023/04/15 05:41:43;;;;;;;6.05;2.35;;;;;;;4.55;79.20;101015.16;5028071;28;20041;-45
2023/04/15 05:44:10;;;;;;;6.80;2.47;;;;;;;4.55;78.90;101017.91;5025640;28;20484;-45
2023/04/15 05:46:36;;;;;;;10.25;3.55;;;;;;;4.53;79.36;101020.13;5020216;28;20144;-45
2023/04/15 05:49:03;;;;;;;5.50;3.03;;;;;;;4.52;79.08;101018.50;5026298;28;20552;-53
2023/04/15 05:51:30;;;;;;;10.25;2.97;;;;;;;4.52;79.07;101024.00;5022064;28;20033;-45
2023/04/15 05:53:57;;;;;;;5.35;2.67;;;;;;;4.52;79.24;101033.03;5029909;28;20124;-51
2023/04/15 05:56:25;;;;;;;9.95;2.67;;;;;;;4.50;79.57;101031.72;5028351;28;20056;-45
2023/04/15 05:58:52;;;;;;;8.43;3.13;;;;;;;4.51;79.66;101038.78;5029018;28;20037;-45
2023/04/15 06:01:19;;;;;;;8.88;2.30;;;;;;;4.57;80.08;101029.38;5028290;28;20486;-45
2023/04/15 06:03:46;;;;;;;8.07;4.97;;;;;;;4.64;79.96;101049.00;5028897;28;20050;-46
2023/04/15 06:06:14;;;;;;;8.45;2.65;;;;;;;4.67;79.88;101053.91;5028585;28;20041;-51
2023/04/15 06:08:40;;;;;;;8.25;2.60;;;;;;;4.72;79.57;101059.31;5028521;28;20052;-45
2023/04/15 06:11:07;;;;;;;9.65;2.50;;;;;;;4.75;79.76;101069.69;5028139;28;20042;-46
2023/04/15 06:13:39;;;;;;;9.77;3.10;;;;;;;4.74;79.56;101068.88;5028679;28;20081;-46
2023/04/15 06:16:06;;;;;;;5.03;2.88;;;;;;;4.76;79.90;101065.84;5029091;28;20045;-46
2023/04/15 06:18:33;;;;;;;5.53;2.92;;;;;;;4.80;80.07;101070.41;5028382;28;20831;-50
2023/04/15 06:21:00;;;;;;;6.57;2.85;;;;;;;4.80;79.79;101078.66;5027282;28;20498;-51
2023/04/15 06:23:26;;;;;;;8.50;2.72;;;;;;;4.83;80.24;101079.97;5026578;28;20049;-49
2023/04/15 06:25:53;;;;;;;10.70;3.33;;;;;;;4.87;80.30;101089.25;5027188;28;20037;-46
2023/04/15 06:28:21;;;;;;;11.45;3.58;;;;;;;4.90;80.17;101083.97;5024444;28;20530;-46
2023/04/15 06:30:48;;;;;;;9.02;2.30;;;;;;;4.91;80.37;101087.53;5030345;28;20376;-46
2023/04/15 06:33:15;;;;;;;8.68;2.75;;;;;;;4.92;80.03;101094.66;5022745;28;20394;-45
2023/04/15 06:35:41;;;;;;;6.93;2.58;;;;;;;4.93;80.22;101091.59;5028400;28;20287;-53
2023/04/15 06:38:08;;;;;;;9.40;2.22;;;;;;;4.95;80.41;101096.78;5023894;28;20046;-44
2023/04/15 06:40:35;;;;;;;6.82;2.85;;;;;;;4.96;80.72;101095.69;5024123;28;20442;-50
2023/04/15 06:43:03;;;;;;;5.68;2.78;;;;;;;5.00;80.83;101104.13;5025143;28;20057;-46
2023/04/15 06:45:30;;;;;;;8.95;2.53;;;;;;;5.02;80.96;101108.19;5027722;28;20056;-44
2023/04/15 06:47:57;;;;;;;12.25;2.90;;;;;;;5.08;80.99;101109.75;5021066;28;20415;-44
2023/04/15 06:50:24;;;;;;;8.50;2.40;;;;;;;5.13;81.03;101123.41;5017556;28;20068;-44
2023/04/15 06:52:51;;;;;;;9.30;2.92;;;;;;;5.20;80.70;101134.78;5028086;28;20044;-45
2023/04/15 06:55:18;;;;;;;6.65;3.75;;;;;;;5.25;81.07;101134.72;5026988;28;20053;-45
2023/04/15 06:57:45;;;;;;;7.85;2.45;;;;;;;5.30;80.58;101140.09;5026316;28;20099;-45
2023/04/15 07:00:12;;;;;;;8.23;2.33;;;;;;;5.34;80.99;101130.16;5021177;28;20045;-45
2023/04/15 07:02:39;;;;;;;10.95;2.90;;;;;;;5.36;81.01;101138.91;5018769;28;20081;-45
2023/04/15 07:05:07;;;;;;;8.65;3.10;;;;;;;5.38;80.78;101136.69;5022714;28;20505;-46
2023/04/15 07:07:34;;;;;;;12.75;3.08;;;;;;;5.44;81.24;101134.66;5040748;28;20049;-46
2023/04/15 07:10:02;;;;;;;6.60;2.72;;;;;;;5.50;81.29;101148.00;5024470;28;20053;-45
2023/04/15 07:12:29;;;;;;;6.15;2.53;;;;;;;5.56;81.43;101147.91;5031744;28;20072;-49
2023/04/15 07:14:57;;;;;;;7.18;2.85;;;;;;;5.59;80.99;101152.81;5027374;28;20479;-50
2023/04/15 07:17:24;;;;;;;9.80;3.70;;;;;;;5.62;81.15;101153.00;5035676;28;20050;-45
2023/04/15 07:19:51;;;;;;;10.40;3.25;;;;;;;5.67;81.53;101147.41;5031206;28;20538;-45
2023/04/15 07:22:18;;;;;;;7.05;3.40;;;;;;;5.71;81.22;101153.13;5046271;28;20049;-49
2023/04/15 07:24:45;;;;;;;9.77;2.67;;;;;;;5.79;81.25;101157.94;5040696;28;20132;-46
2023/04/15 07:27:12;;;;;;;11.57;2.80;;;;;;;5.83;81.28;101165.25;5033800;28;20477;-45
2023/04/15 07:29:39;;;;;;;7.93;2.60;;;;;;;5.89;81.84;101174.25;5034591;28;20512;-48
2023/04/15 07:32:06;;;;;;;7.93;2.58;;;;;;;5.93;81.47;101178.03;5033920;28;20046;-45
2023/04/15 07:34:32;;;;;;;6.90;3.25;;;;;;;5.99;81.51;101179.53;5030917;28;20483;-44
2023/04/15 07:37:00;;;;;;;7.63;2.58;;;;;;;6.04;81.59;101187.69;5031089;28;20052;-48
2023/04/15 07:39:28;;;;;;;6.57;2.40;;;;;;;6.12;81.70;101189.72;5030901;28;20049;-44
2023/04/15 07:41:55;;;;;;;8.98;2.80;;;;;;;6.19;81.56;101195.66;5031314;28;20145;-47
2023/04/15 07:44:21;;;;;;;9.70;2.83;;;;;;;6.26;81.99;101196.06;5031054;28;20049;-47
2023/04/15 07:46:48;;;;;;;5.60;2.38;;;;;;;6.33;81.76;101207.47;5024648;28;20491;-50
2023/04/15 07:49:15;;;;;;;9.88;2.30;;;;;;;6.41;82.00;101204.00;5030591;28;20053;-46
2023/04/15 07:51:42;;;;;;;6.47;2.30;;;;;;;6.48;82.02;101220.09;5030609;28;20534;-50
2023/04/15 07:54:09;;;;;;;7.63;3.92;;;;;;;6.54;82.07;101214.16;5032058;28;20386;-44
2023/04/15 07:56:36;;;;;;;5.53;2.88;;;;;;;6.63;82.16;101211.53;5024854;28;20042;-46
2023/04/15 07:59:03;;;;;;;8.70;2.35;;;;;;;6.73;82.18;101223.13;5023103;28;20042;-46
2023/04/15 08:01:34;;;;;;;7.28;2.13;;;;;;;6.83;81.67;101224.81;5017272;28;20037;-47
2023/04/15 08:04:02;;;;;;;6.45;2.10;;;;;;;6.93;82.04;101221.06;5019971;28;20431;-45
2023/04/15 08:06:29;;;;;;;6.95;2.60;;;;;;;7.02;82.08;101224.69;5025361;28;20522;-46
2023/04/15 08:08:56;;;;;;;7.93;2.10;;;;;;;7.11;82.44;101220.91;5028951;28;20132;-50
2023/04/15 08:11:23;;;;;;;5.47;1.98;;;;;;;7.20;82.73;101226.50;5016081;28;20136;-46
2023/04/15 08:13:51;;;;;;;6.10;2.08;;;;;;;7.32;83.23;101229.50;5029162;28;20439;-46
2023/04/15 08:16:22;;;;;;;4.38;2.10;;;;;;;7.46;83.85;101233.03;5031069;28;20099;-48
2023/04/15 08:18:50;;;;;;;5.78;1.83;;;;;;;7.55;84.25;101228.38;5030430;28;20045;-46
2023/04/15 08:21:18;;;;;;;5.78;2.55;;;;;;;7.68;85.41;101227.50;5030520;28;20522;-45
2023/04/15 08:23:47;;;;;;;8.65;3.00;;;;;;;7.82;86.52;101217.22;5030178;28;20045;-48
2023/04/15 08:26:14;;;;;;;9.57;2.33;;;;;;;7.98;87.52;101221.22;5030233;28;20049;-47
2023/04/15 08:28:42;;;;;;;5.40;1.92;;;;;;;8.19;88.93;101223.41;5030026;28;20049;-47
2023/04/15 08:31:09;;;;;;;7.13;2.28;;;;;;;8.45;90.35;101235.38;5029120;28;20051;-47
2023/04/15 08:33:36;;;;;;;4.45;1.70;;;;;;;8.83;92.28;101236.50;5043362;28;20107;-46
2023/04/15 08:36:03;;;;;;;3.35;1.58;;;;;;;9.18;94.09;101237.38;5029922;28;20045;-47
2023/04/15 08:38:30;;;;;;;4.75;1.90;;;;;;;9.71;96.46;101228.72;5029846;28;20053;-47
2023/04/15 08:41:02;;;;;;;7.82;1.80;;;;;;;10.43;98.11;101233.44;5030161;28;20572;-48
2023/04/15 08:43:34;;;;;;;;;;;;;;;11.29;96.03;101239.25;5030340;28;20124;-50
2023/04/15 08:46:03;;;;;;;7.07;1.97;;;;;;;12.54;97.79;101244.22;5030033;28;19924;-46
2023/04/15 08:48:32;;;;;;;5.22;1.92;;;;;;;13.70;92.99;101255.41;5029903;28;20293;-48
2023/04/15 08:50:59;;;;;;;2.90;2.05;;;;;;;14.80;87.80;101264.72;5030578;28;20414;-51
2023/04/15 08:53:29;;;;;;;3.28;1.95;;;;;;;15.67;82.71;101267.16;5031557;28;20115;-44
2023/04/15 08:55:57;;;;;;;7.63;1.63;;;;;;;16.44;77.84;101271.44;5028368;28;20061;-44
2023/04/15 08:58:25;;;;;;;5.38;1.60;;;;;;;17.08;73.61;101272.53;5028171;28;20050;-43
2023/04/15 09:00:52;;;;;;;5.97;1.75;;;;;;;17.65;70.01;101277.00;5029670;28;20100;-43
2023/04/15 09:03:20;;;;;;;3.63;1.75;;;;;;;18.15;66.79;101289.59;5029498;28;20095;-48
2023/04/15 09:05:47;;;;;;;3.97;1.70;;;;;;;18.46;63.74;101282.72;5023486;28;20050;-45
2023/04/15 09:08:14;;;;;;;3.58;1.83;;;;;;;18.74;61.52;101286.59;5029760;28;20451;-44
2023/04/15 09:10:41;;;;;;;2.60;0.95;;;;;;;18.84;59.16;101291.53;5029410;28;20073;-45
2023/04/15 09:13:08;;;;;;;4.55;1.42;;;;;;;18.79;57.50;101293.88;5029512;28;20045;-44
2023/04/15 09:15:37;;;;;;;4.18;1.10;;;;;;;18.92;57.06;101294.38;5029081;28;20049;-51
2023/04/15 09:18:05;;;;;;;4.20;1.38;;;;;;;19.19;55.57;101287.38;5029380;28;20041;-46
2023/04/15 09:20:43;;;;;;;2.50;1.20;;;;;;;19.23;55.09;101289.00;5022980;28;20053;-43
2023/04/15 09:23:14;;;;;;;5.10;1.88;;;;;;;19.24;53.63;101292.63;5027737;28;20144;-44
2023/04/15 09:25:43;;;;;;;2.95;1.20;;;;;;;19.34;51.67;101297.50;5029439;28;20056;-48
2023/04/15 09:28:10;;;;;;;10.18;1.73;;;;;;;19.51;50.69;101302.47;5028275;28;20093;-46
2023/04/15 09:30:37;;;;;;;2.22;1.20;;;;;;;19.76;49.96;101297.78;5035252;28;20053;-44
2023/04/15 09:33:07;;;;;;;3.15;0.82;;;;;;;19.98;48.65;101313.53;5029122;28;20128;-45
2023/04/15 09:35:36;;;;;;;4.90;0.80;;;;;;;20.17;47.93;101300.34;5027744;28;20050;-44
2023/04/15 09:38:08;;;;;;;10.27;2.38;;;;;;;20.44;47.10;101304.44;5029284;28;20080;-45
2023/04/15 09:40:39;;;;;;;2.80;1.75;;;;;;;20.59;46.44;101306.91;5029794;28;20148;-45
2023/04/15 09:43:08;;;;;;;1.17;0.43;;;;;;;20.68;45.91;101308.53;5027228;28;20038;-46
2023/04/15 09:45:35;;;;;;;1.75;0.57;;;;;;;20.30;45.05;101304.44;5028975;28;20148;-45
2023/04/15 09:48:24;;;;;;;2.45;0.45;;;;;;;20.10;45.90;101309.56;5029623;28;20044;-43
2023/04/15 09:50:52;;;;;;;1.15;0.52;;;;;;;19.75;44.99;101307.38;5028044;28;20045;-43
2023/04/15 09:53:21;;;;;;;1.77;0.50;;;;;;;19.56;45.29;101304.91;5027275;28;20057;-43
2023/04/15 09:56:00;;;;;;;1.15;0.47;;;;;;;19.78;44.69;101303.78;5028272;28;20076;-43
2023/04/15 09:58:29;;;;;;;2.72;0.80;;;;;;;19.76;43.63;101302.59;5029059;28;20061;-42
2023/04/15 10:00:58;;;;;;;2.83;0.93;;;;;;;18.90;45.01;101311.63;5039480;28;20052;-43
2023/04/15 10:03:30;;;;;;;3.90;0.80;;;;;;;19.13;44.84;101302.97;5028888;28;20033;-43
2023/04/15 10:05:59;;;;;;;6.22;1.00;;;;;;;19.74;44.33;101294.56;5028593;28;20050;-43
2023/04/15 10:08:32;;;;;;;2.42;0.88;;;;;;;20.29;43.63;101302.81;5028438;28;20140;-42
2023/04/15 10:11:03;;;;;;;2.30;0.47;;;;;;;20.58;42.95;101310.09;5018860;28;20128;-43
2023/04/15 10:13:36;;;;;;;3.80;0.68;;;;;;;20.61;42.28;101309.31;5026920;28;20092;-43
2023/04/15 10:16:10;;;;;;;2.05;0.55;;;;;;;20.69;42.08;101302.50;5014676;28;20059;-48
2023/04/15 10:18:41;;;;;;;1.17;0.63;;;;;;;20.94;41.84;101294.84;5020870;28;20045;-50
2023/04/15 10:21:08;;;;;;;1.65;0.40;;;;;;;21.03;41.44;101303.69;5021175;28;20057;-46
2023/04/15 10:23:35;;;;;;;3.45;0.40;;;;;;;21.00;40.91;101309.31;5028944;28;20051;-45
2023/04/15 10:26:06;;;;;;;4.28;0.50;;;;;;;20.98;40.53;101304.13;5025503;28;20181;-45
2023/04/15 10:28:33;;;;;;;1.77;0.60;;;;;;;20.86;40.14;101301.72;5024282;28;20136;-50
2023/04/15 10:31:00;;;;;;;2.10;0.30;;;;;;;20.68;40.08;101306.50;5025103;28;20124;-43
2023/04/15 10:33:28;;;;;;;2.53;0.40;;;;;;;20.58;40.49;101312.91;5025237;28;20144;-49
2023/04/15 10:35:56;;;;;;;6.22;0.43;;;;;;;20.49;40.25;101307.69;5023660;28;20473;-44
2023/04/15 10:38:41;;;;;;;1.58;0.32;;;;;;;20.26;40.33;101309.22;5026863;28;20407;-45
2023/04/15 10:41:21;;;;;;;0.93;0.50;;;;;;;20.09;40.43;101305.16;5026600;28;20061;-46
2023/04/15 10:44:04;;;;;;;1.25;0.20;;;;;;;19.75;40.98;101307.38;5027720;28;20136;-49
2023/04/15 10:46:44;;;;;;;1.48;0.40;;;;;;;19.51;40.99;101312.88;5024800;28;20434;-45
2023/04/15 10:49:13;;;;;;;0.65;0.22;;;;;;;19.24;41.51;101315.09;5032493;28;20042;-44
2023/04/15 10:51:43;;;;;;;0.73;0.20;;;;;;;18.88;42.21;101310.41;5027646;28;20050;-43
2023/04/15 10:54:25;;;;;;;2.35;0.30;;;;;;;18.42;43.15;101316.34;5029619;28;20049;-47
2023/04/15 10:57:07;;;;;;;1.60;0.75;;;;;;;17.99;44.18;101314.22;5023406;28;20406;-44
2023/04/15 11:00:03;;;;;;;2.22;0.40;;;;;;;17.51;45.03;101302.78;5029592;28;20046;-44
2023/04/15 11:03:06;;;;;;;0.47;0.30;;;;;;;17.02;45.76;101302.81;5028805;28;20060;-51
2023/04/15 11:05:51;;;;;;;1.60;0.43;;;;;;;16.49;47.17;101305.88;5017600;28;20137;-44
2023/04/15 11:08:18;;;;;;;2.97;0.30;;;;;;;16.23;48.17;101303.78;5026537;28;20049;-48
2023/04/15 11:10:44;;;;;;;1.33;0.30;;;;;;;16.04;48.39;101301.03;5028671;28;20051;-45
2023/04/15 11:13:11;;;;;;;4.32;0.60;;;;;;;15.84;48.80;101308.56;5029132;28;20045;-43
2023/04/15 11:15:40;;;;;;;1.65;0.30;;;;;;;15.65;49.19;101311.34;5027525;28;20072;-45
2023/04/15 11:18:11;;;;;;;1.75;0.47;;;;;;;15.49;49.49;101307.84;5027829;28;20041;-48
2023/04/15 11:20:41;;;;;;;0.85;0.40;;;;;;;15.29;49.78;101303.34;5039431;28;20515;-45
2023/04/15 11:23:08;;;;;;;1.00;0.20;;;;;;;15.00;49.80;101301.84;5028446;28;20049;-45
2023/04/15 11:25:41;;;;;;;0.88;0.30;;;;;;;14.84;50.42;101290.72;5025241;28;20145;-49
2023/04/15 11:28:10;;;;;;;0.68;0.28;;;;;;;14.75;51.00;101304.03;5024923;28;20056;-45
2023/04/15 11:30:39;;;;;;;1.10;0.93;;;;;;;14.67;51.58;101296.66;5026717;28;20090;-45
2023/04/15 11:33:08;;;;;;;3.55;0.90;;;;;;;14.59;51.90;101283.69;5028172;28;20045;-45